Linder, Arkansas
Current Conditions -  °F | °C
As of 2:58 PM on Friday 19 Dec 2014 (Local Time) from KLRF Reporting Station
Overcast Overcast  
Wind Chill: 37°   Ceiling: 1200
Heat Index: 42°   Visibility: 10mi
Dew Point: 38°   Wind: 7mph
Humidity: 88%   Direction: 60°ENE
Pressure: 30.19"   Gusts: NA
Location:  35.2494°N, 92.313°W
Report Text: KLRF 192058Z AUTO 06006KT 10SM OVC012 05/04 A3019 RMK AO2 RAE2030DZB2003E2013B2030E2033 SLP228 P0000 60002 T00540035 55022
Loading
Personal Weather Stations






























Interactive Weather Map New forecast layout! Learn more

10-Day Weather Forecast

Advertisements
Track Severe Weather on mobile